createdAt,value
2023-05-13T00:00:24.133Z,14.46
2023-05-13T00:02:52.349Z,14.52
2023-05-13T00:05:20.491Z,14.39
2023-05-13T00:07:48.368Z,14.21
2023-05-13T00:10:16.733Z,14.10
2023-05-13T00:12:45.918Z,14.20
2023-05-13T00:15:13.676Z,14.15
2023-05-13T00:17:41.552Z,14.05
2023-05-13T00:20:10.090Z,14.04
2023-05-13T00:22:37.920Z,13.81
2023-05-13T00:25:06.307Z,13.67
2023-05-13T00:27:34.131Z,13.60
2023-05-13T00:30:05.591Z,13.76
2023-05-13T00:32:33.514Z,13.88
2023-05-13T00:35:01.393Z,13.80
2023-05-13T00:37:29.249Z,13.77
2023-05-13T00:39:57.115Z,13.45
2023-05-13T00:42:25.028Z,13.70
2023-05-13T00:44:52.962Z,14.01
2023-05-13T00:47:23.063Z,14.13
2023-05-13T00:49:50.990Z,13.64
2023-05-13T00:52:18.865Z,13.29
2023-05-13T00:54:46.665Z,13.26
2023-05-13T00:57:14.618Z,13.33
2023-05-13T00:59:42.449Z,13.36
2023-05-13T01:02:16.337Z,13.32
2023-05-13T01:04:56.930Z,13.36
2023-05-13T01:07:32.982Z,13.38
2023-05-13T01:10:08.883Z,13.29
2023-05-13T01:12:38.389Z,13.35
2023-05-13T01:15:09.596Z,13.23
2023-05-13T01:17:43.503Z,13.25
2023-05-13T01:20:13.482Z,13.13
2023-05-13T01:22:42.708Z,13.25
2023-05-13T01:25:11.485Z,13.16
2023-05-13T01:27:39.702Z,13.25
2023-05-13T01:30:10.179Z,13.29
2023-05-13T01:32:39.570Z,13.15
2023-05-13T01:35:10.207Z,12.96
2023-05-13T01:37:43.565Z,13.18
2023-05-13T01:40:20.400Z,13.39
2023-05-13T01:42:52.985Z,13.26
2023-05-13T01:45:20.916Z,13.22
2023-05-13T01:47:48.749Z,13.12
2023-05-13T01:50:16.992Z,13.15
2023-05-13T01:52:46.149Z,13.08
2023-05-13T01:55:13.804Z,13.09
2023-05-13T01:57:43.030Z,13.11
2023-05-13T02:00:12.151Z,13.01
2023-05-13T02:02:42.906Z,12.94
2023-05-13T02:05:10.861Z,12.85
2023-05-13T02:07:39.285Z,12.89
2023-05-13T02:10:09.333Z,12.99
2023-05-13T02:12:37.217Z,13.02
2023-05-13T02:15:06.404Z,12.99
2023-05-13T02:17:34.421Z,13.13
2023-05-13T02:20:04.003Z,13.25
2023-05-13T02:22:31.876Z,13.12
2023-05-13T02:25:00.321Z,12.72
2023-05-13T02:27:29.683Z,12.81
2023-05-13T02:29:57.358Z,12.84
2023-05-13T02:32:25.911Z,12.95
2023-05-13T02:34:53.785Z,12.82
2023-05-13T02:37:22.085Z,12.85
2023-05-13T02:39:58.876Z,12.94
2023-05-13T02:42:26.931Z,12.92
2023-05-13T02:44:57.417Z,13.25
2023-05-13T02:47:26.672Z,13.29
2023-05-13T02:49:56.181Z,13.32
2023-05-13T02:52:24.174Z,13.40
2023-05-13T02:54:52.111Z,13.36
2023-05-13T02:57:22.820Z,13.50
2023-05-13T02:59:50.835Z,13.64
2023-05-13T03:02:20.200Z,13.40
2023-05-13T03:04:48.057Z,13.39
2023-05-13T03:07:15.862Z,13.23
2023-05-13T03:09:43.707Z,13.32
2023-05-13T03:12:11.586Z,13.16
2023-05-13T03:14:40.094Z,13.08
2023-05-13T03:17:07.939Z,12.88
2023-05-13T03:19:38.363Z,12.44
2023-05-13T03:22:06.890Z,11.94
2023-05-13T03:24:35.057Z,11.87
2023-05-13T03:27:03.655Z,11.97
2023-05-13T03:29:32.515Z,12.23
2023-05-13T03:32:00.383Z,12.43
2023-05-13T03:34:28.665Z,12.61
2023-05-13T03:36:57.820Z,12.77
2023-05-13T03:39:26.959Z,12.78
2023-05-13T03:41:54.812Z,12.81
2023-05-13T03:44:23.009Z,12.81
2023-05-13T03:46:50.866Z,12.69
2023-05-13T03:49:20.256Z,12.87
2023-05-13T03:51:48.117Z,12.55
2023-05-13T03:54:17.440Z,12.40
2023-05-13T03:56:46.262Z,12.16
2023-05-13T03:59:14.074Z,11.94
2023-05-13T04:01:42.005Z,12.17
2023-05-13T04:04:10.061Z,12.27
2023-05-13T04:06:37.831Z,12.34
2023-05-13T04:09:05.987Z,12.22
2023-05-13T04:11:35.115Z,12.10
2023-05-13T04:14:02.983Z,12.16
2023-05-13T04:16:30.786Z,12.04
2023-05-13T04:18:58.695Z,12.03
2023-05-13T04:21:26.521Z,12.10
2023-05-13T04:23:55.504Z,12.10
2023-05-13T04:26:23.305Z,11.93
2023-05-13T04:28:52.432Z,12.00
2023-05-13T04:31:21.323Z,11.94
2023-05-13T04:33:49.180Z,12.02
2023-05-13T04:36:16.962Z,12.07
2023-05-13T04:38:45.174Z,12.16
2023-05-13T04:41:12.995Z,12.31
2023-05-13T04:43:44.972Z,12.30
2023-05-13T04:46:14.271Z,12.27
2023-05-13T04:48:42.858Z,12.43
2023-05-13T04:51:11.206Z,12.54
2023-05-13T04:53:39.861Z,12.57
2023-05-13T04:56:09.604Z,12.51
2023-05-13T04:58:37.457Z,12.58
2023-05-13T05:01:05.304Z,12.82
2023-05-13T05:03:34.921Z,12.80
2023-05-13T05:06:02.852Z,12.92
2023-05-13T05:08:30.800Z,13.08
2023-05-13T05:11:00.484Z,13.13
2023-05-13T05:13:28.181Z,13.23
2023-05-13T05:15:56.252Z,13.04
2023-05-13T05:18:24.177Z,12.95
2023-05-13T05:20:53.894Z,12.85
2023-05-13T05:23:22.877Z,12.91
2023-05-13T05:26:00.893Z,13.30
2023-05-13T05:28:40.265Z,13.76
2023-05-13T05:31:09.689Z,14.39
2023-05-13T05:33:37.894Z,15.48
2023-05-13T05:36:08.655Z,15.55
2023-05-13T05:38:36.875Z,15.89
2023-05-13T05:41:05.562Z,16.08
2023-05-13T05:43:33.680Z,16.33
2023-05-13T05:46:01.523Z,16.55
2023-05-13T05:48:29.434Z,16.94
2023-05-13T05:50:57.510Z,17.39
2023-05-13T05:53:33.551Z,18.27
2023-05-13T05:56:03.760Z,18.92
2023-05-13T05:58:32.091Z,19.54
2023-05-13T06:01:00.677Z,19.98
2023-05-13T06:03:28.996Z,19.37
2023-05-13T06:05:57.020Z,19.27
2023-05-13T06:08:29.927Z,18.91
2023-05-13T06:11:00.034Z,18.95
2023-05-13T06:13:27.991Z,19.77
2023-05-13T06:15:56.672Z,21.06
2023-05-13T06:18:24.647Z,21.94
2023-05-13T06:20:52.463Z,22.55
2023-05-13T06:23:20.412Z,23.24
2023-05-13T06:25:48.302Z,23.04
2023-05-13T06:28:17.453Z,23.27
2023-05-13T06:30:46.005Z,23.48
2023-05-13T06:33:14.034Z,23.27
2023-05-13T06:35:41.843Z,24.16
2023-05-13T06:38:11.644Z,24.64
2023-05-13T06:40:39.512Z,24.91
2023-05-13T06:43:07.382Z,25.76
2023-05-13T06:45:40.445Z,26.35
2023-05-13T06:48:08.520Z,25.45
2023-05-13T06:50:38.231Z,26.52
2023-05-13T06:53:06.140Z,26.42
2023-05-13T06:55:35.966Z,27.20
2023-05-13T06:58:03.789Z,27.90
2023-05-13T07:00:31.562Z,28.16
2023-05-13T07:03:01.022Z,28.97
2023-05-13T07:05:28.857Z,29.27
2023-05-13T07:07:56.821Z,29.07
2023-05-13T07:10:24.971Z,27.78
2023-05-13T07:12:52.909Z,26.05
2023-05-13T07:15:21.072Z,26.05
2023-05-13T07:17:49.175Z,27.31
2023-05-13T07:20:22.417Z,28.93
2023-05-13T07:22:50.800Z,29.48
2023-05-13T07:25:19.006Z,30.10
2023-05-13T07:27:47.915Z,30.12
2023-05-13T07:30:16.639Z,30.68
2023-05-13T07:32:44.780Z,30.53
2023-05-13T07:35:12.628Z,31.34
2023-05-13T07:37:41.856Z,30.30
2023-05-13T07:40:10.816Z,30.12
2023-05-13T07:42:38.782Z,31.77
2023-05-13T07:45:07.803Z,31.47
2023-05-13T07:47:35.756Z,31.24
2023-05-13T07:50:03.647Z,29.55
2023-05-13T07:52:31.606Z,28.99
2023-05-13T07:55:00.874Z,30.13
2023-05-13T07:57:28.759Z,30.77
2023-05-13T07:59:56.671Z,31.72
2023-05-13T08:02:24.617Z,31.96
2023-05-13T08:04:52.517Z,30.98
2023-05-13T08:07:20.583Z,30.91
2023-05-13T08:09:48.566Z,31.01
2023-05-13T08:12:17.924Z,31.47
2023-05-13T08:14:47.593Z,30.19
2023-05-13T08:17:17.183Z,30.40
2023-05-13T08:19:45.058Z,30.32
2023-05-13T08:22:12.905Z,30.85
2023-05-13T08:24:41.102Z,30.87
2023-05-13T08:27:08.906Z,29.55
2023-05-13T08:29:38.079Z,30.13
2023-05-13T08:32:06.825Z,29.79
2023-05-13T08:34:34.710Z,29.48
2023-05-13T08:37:02.546Z,29.75
2023-05-13T08:39:30.379Z,30.56
2023-05-13T08:41:59.985Z,30.44
2023-05-13T08:44:29.750Z,30.59
2023-05-13T08:47:16.099Z,31.21
2023-05-13T08:49:43.979Z,31.34
2023-05-13T08:52:11.814Z,31.29
2023-05-13T08:54:39.807Z,32.30
2023-05-13T08:57:07.723Z,29.55
2023-05-13T08:59:35.686Z,28.57
2023-05-13T09:02:06.026Z,30.23
2023-05-13T09:04:37.625Z,30.67
2023-05-13T09:07:06.023Z,30.46
2023-05-13T09:09:34.218Z,29.51
2023-05-13T09:12:02.061Z,28.32
2023-05-13T09:14:32.291Z,28.59
2023-05-13T09:17:00.246Z,27.94
2023-05-13T09:19:29.608Z,28.31
2023-05-13T09:21:58.149Z,28.51
2023-05-13T09:24:26.241Z,27.19
2023-05-13T09:26:54.066Z,28.42
2023-05-13T09:29:23.756Z,27.41
2023-05-13T09:31:53.447Z,27.55
2023-05-13T09:34:30.764Z,28.56
2023-05-13T09:37:00.399Z,29.57
2023-05-13T09:39:28.536Z,27.07
2023-05-13T09:41:56.455Z,26.93
2023-05-13T09:44:24.478Z,27.51
2023-05-13T09:46:53.294Z,25.07
2023-05-13T09:49:23.170Z,26.85
2023-05-13T09:51:54.111Z,28.09
2023-05-13T09:54:21.945Z,27.98
2023-05-13T09:56:49.866Z,28.11
2023-05-13T09:59:18.127Z,27.72
2023-05-13T10:01:47.694Z,25.94
2023-05-13T10:04:16.504Z,24.13
2023-05-13T10:06:44.893Z,23.80
2023-05-13T10:09:16.186Z,24.40
2023-05-13T10:11:47.448Z,24.57
2023-05-13T10:14:16.853Z,26.52
2023-05-13T10:16:45.478Z,27.22
2023-05-13T10:19:13.960Z,27.03
2023-05-13T10:21:42.518Z,27.39
2023-05-13T10:24:10.674Z,27.54
2023-05-13T10:26:41.650Z,26.02
2023-05-13T10:29:10.747Z,25.94
2023-05-13T10:31:39.365Z,27.68
2023-05-13T10:34:07.521Z,28.45
2023-05-13T10:36:54.090Z,26.13
2023-05-13T10:39:44.203Z,25.59
2023-05-13T10:42:42.666Z,26.44
2023-05-13T10:45:10.899Z,24.98
2023-05-13T10:47:39.611Z,24.54
2023-05-13T10:50:22.813Z,25.45
2023-05-13T10:52:51.211Z,24.75
2023-05-13T10:55:21.778Z,24.87
2023-05-13T10:58:10.795Z,25.74
2023-05-13T11:00:40.281Z,25.69
2023-05-13T11:03:16.575Z,26.90
2023-05-13T11:05:59.126Z,25.60
2023-05-13T11:08:40.148Z,25.04
2023-05-13T11:11:26.378Z,23.86
2023-05-13T11:13:57.689Z,24.61
2023-05-13T11:16:25.802Z,24.44
2023-05-13T11:18:54.111Z,25.32
2023-05-13T11:21:31.671Z,25.89
2023-05-13T11:24:01.797Z,24.82
2023-05-13T11:26:44.155Z,23.75
2023-05-13T11:29:13.716Z,24.57
2023-05-13T11:31:46.457Z,25.53
2023-05-13T11:34:16.283Z,26.31
2023-05-13T11:36:46.352Z,26.48
2023-05-13T11:39:16.512Z,24.88
2023-05-13T11:41:46.540Z,25.63
2023-05-13T11:44:17.607Z,26.25
2023-05-13T11:46:56.593Z,26.20
2023-05-13T11:49:32.358Z,26.34
2023-05-13T11:52:00.450Z,27.26
2023-05-13T11:54:28.407Z,27.04
2023-05-13T11:56:56.486Z,26.17
2023-05-13T11:59:26.782Z,25.29
2023-05-13T12:02:01.656Z,25.79
2023-05-13T12:04:31.314Z,25.76
2023-05-13T12:06:59.808Z,24.68
2023-05-13T12:09:27.679Z,24.91
2023-05-13T12:11:55.857Z,24.71
2023-05-13T12:14:27.811Z,23.83
2023-05-13T12:16:57.247Z,23.79
2023-05-13T12:19:25.101Z,23.11
2023-05-13T12:21:52.937Z,23.44
2023-05-13T12:24:21.444Z,23.39
2023-05-13T12:26:49.373Z,24.74
2023-05-13T12:29:17.209Z,25.56
2023-05-13T12:32:07.521Z,25.77
2023-05-13T12:34:36.248Z,25.30
2023-05-13T12:37:12.217Z,25.79
2023-05-13T12:39:41.527Z,26.32
2023-05-13T12:42:15.993Z,24.31
2023-05-13T12:44:45.271Z,23.66
2023-05-13T12:47:15.706Z,23.11
2023-05-13T12:49:53.764Z,23.42
2023-05-13T12:52:22.187Z,22.94
2023-05-13T12:54:50.069Z,22.73
2023-05-13T12:57:18.236Z,22.52
2023-05-13T12:59:46.740Z,22.66
2023-05-13T13:02:15.994Z,22.43
2023-05-13T13:04:43.792Z,21.89
2023-05-13T13:07:14.460Z,20.85
2023-05-13T13:09:42.311Z,20.00
2023-05-13T13:12:10.153Z,19.56
2023-05-13T13:14:37.935Z,19.16
2023-05-13T13:17:05.823Z,19.05
2023-05-13T13:19:35.004Z,18.84
2023-05-13T13:22:02.897Z,18.61
2023-05-13T13:24:30.832Z,18.57
2023-05-13T13:26:58.736Z,18.69
2023-05-13T13:29:26.632Z,18.71
2023-05-13T13:31:54.593Z,19.26
2023-05-13T13:34:22.500Z,19.15
2023-05-13T13:36:51.756Z,19.22
2023-05-13T13:39:19.690Z,19.50
2023-05-13T13:41:47.848Z,19.40
2023-05-13T13:44:15.664Z,19.11
2023-05-13T13:46:43.648Z,18.98
2023-05-13T13:49:22.625Z,18.71
2023-05-13T13:51:52.522Z,19.06
2023-05-13T13:54:20.627Z,19.18
2023-05-13T13:56:49.330Z,19.24
2023-05-13T13:59:19.183Z,19.29
2023-05-13T14:01:47.442Z,19.34
2023-05-13T14:04:17.388Z,19.32
2023-05-13T14:06:46.274Z,19.34
2023-05-13T14:09:16.350Z,19.34
2023-05-13T14:11:44.183Z,19.52
2023-05-13T14:14:12.066Z,19.50
2023-05-13T14:16:40.008Z,19.49
2023-05-13T14:19:08.102Z,19.57
2023-05-13T14:21:36.336Z,19.78
2023-05-13T14:24:04.173Z,20.05
2023-05-13T14:26:33.478Z,20.18
2023-05-13T14:29:01.285Z,20.29
2023-05-13T14:31:29.857Z,20.48
2023-05-13T14:33:58.291Z,20.73
2023-05-13T14:36:26.677Z,20.89
2023-05-13T14:38:54.687Z,21.02
2023-05-13T14:41:23.119Z,21.13
2023-05-13T14:43:52.967Z,21.31
2023-05-13T14:46:20.873Z,21.41
2023-05-13T14:48:48.812Z,21.51
2023-05-13T14:51:16.779Z,21.68
2023-05-13T14:53:44.659Z,21.82
2023-05-13T14:56:12.547Z,21.94
2023-05-13T14:58:40.614Z,22.06
2023-05-13T15:01:09.885Z,22.12
2023-05-13T15:03:38.151Z,22.04
2023-05-13T15:06:06.998Z,22.06
2023-05-13T15:08:34.958Z,21.77
2023-05-13T15:11:02.816Z,21.79
2023-05-13T15:13:35.150Z,21.67
2023-05-13T15:16:03.537Z,21.69
2023-05-13T15:18:32.826Z,21.74
2023-05-13T15:21:00.754Z,21.67
2023-05-13T15:23:28.763Z,21.74
2023-05-13T15:25:56.693Z,21.85
2023-05-13T15:28:24.838Z,21.73
2023-05-13T15:30:52.787Z,21.71
2023-05-13T15:33:20.645Z,21.75
2023-05-13T15:35:49.884Z,21.54
2023-05-13T15:38:17.971Z,21.40
2023-05-13T15:40:47.275Z,21.30
2023-05-13T15:43:15.060Z,21.38
2023-05-13T15:45:42.965Z,21.41
2023-05-13T15:48:10.888Z,21.23
2023-05-13T15:50:38.812Z,21.30
2023-05-13T15:53:08.038Z,21.33
2023-05-13T15:55:37.410Z,21.53
2023-05-13T15:58:05.267Z,21.37
2023-05-13T16:00:33.170Z,21.59
2023-05-13T16:03:01.101Z,21.75
2023-05-13T16:05:29.256Z,21.69
2023-05-13T16:07:57.184Z,21.30
2023-05-13T16:10:26.494Z,21.07
2023-05-13T16:12:54.322Z,21.00
2023-05-13T16:15:22.174Z,20.72
2023-05-13T16:17:50.042Z,20.48
2023-05-13T16:20:17.891Z,20.32
2023-05-13T16:22:45.728Z,20.12
2023-05-13T16:25:13.630Z,20.04
2023-05-13T16:27:43.173Z,19.93
2023-05-13T16:30:11.620Z,19.83
2023-05-13T16:32:39.603Z,19.85
2023-05-13T16:35:09.990Z,19.71
2023-05-13T16:37:37.851Z,19.54
2023-05-13T16:40:06.803Z,19.45
2023-05-13T16:42:34.672Z,19.42
2023-05-13T16:45:03.960Z,19.54
2023-05-13T16:47:31.836Z,19.62
2023-05-13T16:49:59.839Z,19.69
2023-05-13T16:52:27.804Z,19.70
2023-05-13T16:54:58.365Z,19.60
2023-05-13T16:57:27.056Z,19.52
2023-05-13T16:59:54.881Z,19.26
2023-05-13T17:02:24.166Z,19.13
2023-05-13T17:04:52.244Z,19.12
2023-05-13T17:07:20.225Z,18.98
2023-05-13T17:09:48.062Z,19.05
2023-05-13T17:12:16.736Z,18.92
2023-05-13T17:14:44.733Z,18.67
2023-05-13T17:17:12.667Z,18.23
2023-05-13T17:19:42.299Z,18.04
2023-05-13T17:22:10.110Z,17.80
2023-05-13T17:24:38.503Z,17.52
2023-05-13T17:27:06.963Z,17.36
2023-05-13T17:29:34.767Z,17.31
2023-05-13T17:32:02.590Z,17.11
2023-05-13T17:34:30.401Z,16.71
2023-05-13T17:36:59.565Z,16.28
2023-05-13T17:39:27.204Z,15.67
2023-05-13T17:41:55.027Z,15.17
2023-05-13T17:44:23.821Z,14.82
2023-05-13T17:46:51.764Z,14.49
2023-05-13T17:49:19.624Z,14.20
2023-05-13T17:51:47.489Z,13.91
2023-05-13T17:54:16.731Z,13.84
2023-05-13T17:56:44.346Z,13.81
2023-05-13T17:59:12.687Z,13.84
2023-05-13T18:01:40.563Z,13.97
2023-05-13T18:04:08.439Z,14.01
2023-05-13T18:06:36.255Z,14.00
2023-05-13T18:09:04.202Z,14.04
2023-05-13T18:11:33.370Z,14.04
2023-05-13T18:14:01.208Z,14.07
2023-05-13T18:16:29.155Z,14.13
2023-05-13T18:18:57.056Z,14.14
2023-05-13T18:21:24.915Z,14.22
2023-05-13T18:23:52.736Z,14.26
2023-05-13T18:26:20.882Z,14.31
2023-05-13T18:28:50.035Z,14.31
2023-05-13T18:31:18.086Z,14.42
2023-05-13T18:33:45.960Z,14.42
2023-05-13T18:36:13.819Z,14.39
2023-05-13T18:38:41.641Z,14.29
2023-05-13T18:41:09.441Z,14.25
2023-05-13T18:43:38.545Z,14.14
2023-05-13T18:46:07.831Z,14.13
2023-05-13T18:48:36.365Z,14.07
2023-05-13T18:51:04.203Z,13.97
2023-05-13T18:53:32.066Z,13.84
2023-05-13T18:56:00.098Z,13.66
2023-05-13T18:58:28.537Z,13.59
2023-05-13T19:00:56.388Z,13.49
2023-05-13T19:03:26.929Z,13.43
2023-05-13T19:05:55.076Z,13.30
2023-05-13T19:08:22.945Z,13.27
2023-05-13T19:10:50.799Z,13.47
2023-05-13T19:13:21.037Z,13.49
2023-05-13T19:15:49.235Z,13.46
2023-05-13T19:18:17.171Z,13.32
2023-05-13T19:20:47.224Z,13.18
2023-05-13T19:23:15.602Z,13.23
2023-05-13T19:25:43.546Z,13.35
2023-05-13T19:28:11.999Z,13.36
2023-05-13T19:30:41.071Z,13.16
2023-05-13T19:33:09.719Z,13.02
2023-05-13T19:35:37.651Z,13.08
2023-05-13T19:38:06.979Z,12.99
2023-05-13T19:40:34.657Z,13.06
2023-05-13T19:43:02.548Z,12.99
2023-05-13T19:45:30.385Z,12.84
2023-05-13T19:47:58.255Z,12.72
2023-05-13T19:50:26.096Z,12.61
2023-05-13T19:52:54.078Z,12.54
2023-05-13T19:55:23.298Z,12.53
2023-05-13T19:57:51.219Z,12.51
2023-05-13T20:00:19.591Z,12.65
2023-05-13T20:02:47.484Z,12.63
2023-05-13T20:05:15.395Z,12.55
2023-05-13T20:07:43.210Z,12.51
2023-05-13T20:10:12.044Z,12.78
2023-05-13T20:12:41.498Z,12.78
2023-05-13T20:15:10.301Z,12.72
2023-05-13T20:17:38.361Z,12.58
2023-05-13T20:20:08.141Z,12.57
2023-05-13T20:22:36.015Z,12.40
2023-05-13T20:25:03.897Z,12.30
2023-05-13T20:27:31.771Z,12.22
2023-05-13T20:30:02.042Z,12.16
2023-05-13T20:32:29.965Z,12.20
2023-05-13T20:34:57.871Z,12.22
2023-05-13T20:37:25.829Z,12.26
2023-05-13T20:39:54.040Z,12.24
2023-05-13T20:42:22.550Z,12.30
2023-05-13T20:44:50.740Z,12.44
2023-05-13T20:47:21.547Z,12.45
2023-05-13T20:49:49.435Z,12.41
2023-05-13T20:52:17.452Z,12.41
2023-05-13T20:54:45.374Z,12.44
2023-05-13T20:57:13.243Z,12.44
2023-05-13T20:59:41.161Z,12.44
2023-05-13T21:02:09.136Z,12.48
2023-05-13T21:04:38.339Z,12.60
2023-05-13T21:07:06.902Z,12.95
2023-05-13T21:09:34.750Z,12.95
2023-05-13T21:12:02.594Z,12.71
2023-05-13T21:14:30.430Z,12.57
2023-05-13T21:16:58.466Z,12.38
2023-05-13T21:19:26.420Z,12.20
2023-05-13T21:21:55.745Z,12.03
2023-05-13T21:24:23.420Z,11.86
2023-05-13T21:26:51.229Z,11.78
2023-05-13T21:29:19.258Z,11.71
2023-05-13T21:31:47.994Z,11.63
2023-05-13T21:34:15.893Z,11.54
2023-05-13T21:36:43.734Z,11.43
2023-05-13T21:39:12.952Z,11.36
2023-05-13T21:41:41.250Z,11.31
2023-05-13T21:44:09.135Z,11.31
2023-05-13T21:46:37.632Z,11.27
2023-05-13T21:49:05.682Z,11.25
2023-05-13T21:51:33.634Z,11.18
2023-05-13T21:54:01.548Z,11.12
2023-05-13T21:56:30.762Z,11.11
2023-05-13T21:58:58.418Z,11.04
2023-05-13T22:01:26.481Z,11.04
2023-05-13T22:03:54.363Z,11.10
2023-05-13T22:06:22.206Z,11.06
2023-05-13T22:08:49.984Z,11.08
2023-05-13T22:11:17.874Z,11.06
2023-05-13T22:13:47.046Z,11.01
2023-05-13T22:16:15.036Z,11.11
2023-05-13T22:18:43.161Z,11.21
2023-05-13T22:21:11.255Z,11.15
2023-05-13T22:23:39.129Z,11.31
2023-05-13T22:26:06.959Z,11.17
2023-05-13T22:28:34.785Z,11.12
2023-05-13T22:31:03.937Z,10.96
2023-05-13T22:33:31.759Z,10.93
2023-05-13T22:35:59.516Z,10.89
2023-05-13T22:38:27.367Z,11.07
2023-05-13T22:40:55.152Z,11.06
2023-05-13T22:43:22.960Z,11.03
2023-05-13T22:45:50.807Z,11.08
2023-05-13T22:48:20.027Z,11.24
2023-05-13T22:50:48.445Z,11.34
2023-05-13T22:53:16.590Z,11.11
2023-05-13T22:55:44.479Z,11.03
2023-05-13T22:58:12.267Z,11.27
2023-05-13T23:00:40.132Z,11.15
2023-05-13T23:03:08.009Z,11.15
2023-05-13T23:05:37.185Z,11.30
2023-05-13T23:08:05.349Z,11.18
2023-05-13T23:10:33.927Z,10.94
2023-05-13T23:13:03.698Z,10.74
2023-05-13T23:15:31.520Z,10.66
2023-05-13T23:17:59.383Z,10.56
2023-05-13T23:20:27.291Z,10.60
2023-05-13T23:22:56.483Z,10.64
2023-05-13T23:25:24.293Z,10.52
2023-05-13T23:27:52.660Z,10.55
2023-05-13T23:30:20.733Z,10.63
2023-05-13T23:32:48.563Z,10.70
2023-05-13T23:35:16.558Z,10.64
2023-05-13T23:37:44.368Z,10.56
2023-05-13T23:40:14.485Z,10.42
2023-05-13T23:42:43.028Z,10.28
2023-05-13T23:45:11.947Z,10.20
2023-05-13T23:47:39.831Z,10.19
2023-05-13T23:50:08.628Z,10.28
2023-05-13T23:52:36.484Z,10.23
2023-05-13T23:55:04.735Z,10.23
2023-05-13T23:57:33.960Z,10.06
